Time;durP1;ratioP1;P1;durP2;ratioP2;P2;SDS_P1;SDS_P2;PMS_P1;PMS_P2;Temp;Humidity;BMP_temperature;BMP_pressure;BME280_temperature;BME280_humidity;BME280_pressure;Samples;Min_cycle;Max_cycle;Signal;HPM_P1;HPM_P2
2023/03/31 00:02:14;;;;;;;16.10;11.10;;;;;;;13.49;98.91;99064.30;673442;1261;139411;-78
2023/03/31 00:17:18;;;;;;;13.00;8.80;;;;;;;13.45;99.45;99065.47;670468;1262;138969;-76
2023/03/31 00:32:21;;;;;;;10.00;7.60;;;;;;;13.36;100.00;99081.18;671659;1257;140209;-77
2023/03/31 00:47:28;;;;;;;14.70;10.30;;;;;;;13.26;100.00;99085.98;671384;1262;140278;-77
2023/03/31 01:02:32;;;;;;;13.70;8.80;;;;;;;13.14;100.00;99087.79;671595;1258;140825;-77
2023/03/31 01:17:36;;;;;;;11.50;8.80;;;;;;;13.12;100.00;99072.73;669566;1262;138953;-78
2023/03/31 01:33:03;;;;;;;13.40;8.60;;;;;;;13.13;100.00;99061.38;673061;1261;139457;-78
2023/03/31 01:48:07;;;;;;;16.90;9.70;;;;;;;13.07;100.00;99054.77;673841;1261;139221;-78
2023/03/31 02:03:39;;;;;;;79.60;40.90;;;;;;;13.05;100.00;99064.82;671081;1262;138649;-78
2023/03/31 02:18:43;;;;;;;15.50;10.00;;;;;;;12.97;100.00;99071.71;671208;1263;139936;-78
2023/03/31 02:33:48;;;;;;;26.30;16.60;;;;;;;12.89;100.00;99071.52;675352;1273;139337;-79
2023/03/31 02:48:55;;;;;;;21.30;13.20;;;;;;;12.79;100.00;99065.73;673864;1263;140267;-79
2023/03/31 03:04:19;;;;;;;27.90;16.50;;;;;;;12.89;100.00;99059.65;668925;1275;139353;-78
2023/03/31 03:19:23;;;;;;;23.50;14.80;;;;;;;12.77;100.00;99063.09;674435;1263;138799;-78
2023/03/31 03:34:27;;;;;;;22.90;14.50;;;;;;;12.65;100.00;99074.88;674436;1263;139728;-79
2023/03/31 03:49:30;;;;;;;22.70;14.30;;;;;;;12.72;100.00;99071.66;668499;1263;140148;-78
2023/03/31 04:04:33;;;;;;;28.00;18.00;;;;;;;12.71;100.00;99064.20;670209;1263;139660;-78
2023/03/31 04:19:37;;;;;;;31.50;18.00;;;;;;;12.71;99.97;99060.31;668874;1263;138946;-79
2023/03/31 04:34:45;;;;;;;32.80;19.10;;;;;;;12.73;99.93;99046.45;667894;1263;139251;-79
2023/03/31 04:49:48;;;;;;;43.60;21.90;;;;;;;12.68;100.00;99036.59;673112;1262;139693;-78
2023/03/31 05:04:51;;;;;;;39.20;22.30;;;;;;;12.81;100.00;99024.44;673798;1257;139603;-78
2023/03/31 05:19:54;;;;;;;40.70;22.20;;;;;;;12.80;100.00;99010.14;671206;1262;139546;-78
2023/03/31 05:35:00;;;;;;;34.90;18.40;;;;;;;12.81;100.00;99000.52;673450;1262;139460;-77
2023/03/31 05:50:09;;;;;;;32.00;18.40;;;;;;;12.97;99.65;98991.81;673109;1261;142300;-79
2023/03/31 06:05:15;;;;;;;25.30;17.50;;;;;;;13.05;98.89;98994.75;671048;1263;139912;-79
2023/03/31 06:20:19;;;;;;;32.40;16.50;;;;;;;13.09;98.62;98991.84;670495;1263;140015;-78
2023/03/31 06:35:30;;;;;;;20.50;11.40;;;;;;;13.22;97.52;98987.87;672610;1262;140168;-79
2023/03/31 06:50:37;;;;;;;23.60;14.20;;;;;;;13.30;96.53;98984.44;676019;1263;140251;-79
2023/03/31 07:05:40;;;;;;;21.60;14.00;;;;;;;13.23;96.69;98987.52;674759;1269;139711;-79
2023/03/31 07:20:47;;;;;;;32.60;21.50;;;;;;;13.37;96.53;98985.92;673316;1263;138572;-77
2023/03/31 07:35:50;;;;;;;60.20;27.20;;;;;;;13.44;96.58;98986.99;672556;1264;139218;-78
2023/03/31 07:51:16;;;;;;;35.30;23.00;;;;;;;13.59;96.93;98975.27;673138;1262;139323;-79
2023/03/31 08:06:21;;;;;;;37.80;22.30;;;;;;;13.82;96.96;98972.05;673834;1263;139152;-78
2023/03/31 08:21:24;;;;;;;30.00;18.20;;;;;;;13.89;96.97;98969.92;669074;1260;138854;-79
2023/03/31 08:36:28;;;;;;;25.90;16.50;;;;;;;13.88;97.64;98948.10;673406;1272;139631;-79
2023/03/31 08:51:41;;;;;;;30.80;18.20;;;;;;;14.04;96.78;98939.67;671327;1272;139380;-78
2023/03/31 09:06:58;;;;;;;28.10;18.40;;;;;;;14.27;96.36;98931.70;671301;1264;139453;-78
2023/03/31 09:22:05;;;;;;;22.10;14.70;;;;;;;14.31;94.45;98925.52;670856;1263;139417;-79
2023/03/31 09:37:10;;;;;;;43.90;21.20;;;;;;;14.87;92.79;98912.17;670690;1259;139377;-78
2023/03/31 09:52:19;;;;;;;27.90;17.20;;;;;;;14.99;91.43;98903.45;670570;1263;139286;-79
2023/03/31 10:07:24;;;;;;;27.30;16.30;;;;;;;15.07;90.80;98892.92;673131;1262;139620;-79
2023/03/31 10:22:30;;;;;;;22.40;13.50;;;;;;;15.38;89.65;98879.56;671256;1263;140063;-80
2023/03/31 10:37:35;;;;;;;22.20;13.40;;;;;;;15.88;86.01;98871.09;670522;1262;139636;-78
2023/03/31 10:52:47;;;;;;;19.20;12.80;;;;;;;16.39;83.17;98863.14;671423;1271;151475;-79
2023/03/31 11:08:02;;;;;;;24.20;13.90;;;;;;;16.92;81.40;98857.29;668734;1263;139136;-79
2023/03/31 11:23:11;;;;;;;16.30;11.10;;;;;;;16.90;79.04;98842.14;669436;1262;139335;-79
2023/03/31 11:38:46;;;;;;;16.20;13.50;;;;;;;16.85;79.24;98832.88;669582;1263;139959;-79
2023/03/31 11:53:52;;;;;;;27.70;15.40;;;;;;;16.48;79.75;98822.79;671661;1263;140303;-79
2023/03/31 12:09:17;;;;;;;21.70;15.40;;;;;;;16.59;80.56;98798.92;670361;1263;139205;-79
2023/03/31 12:24:20;;;;;;;28.90;17.30;;;;;;;16.70;80.79;98793.02;670000;1263;139503;-78
2023/03/31 12:39:47;;;;;;;79.30;41.60;;;;;;;16.46;83.65;98776.10;671487;1263;139328;-77
2023/03/31 12:55:20;;;;;;;60.80;34.90;;;;;;;16.38;85.53;98757.33;668937;1263;140212;-75
2023/03/31 13:10:25;;;;;;;16.90;11.10;;;;;;;15.88;86.16;98747.75;670506;1258;139870;-76
2023/03/31 13:25:28;;;;;;;20.00;12.50;;;;;;;15.42;83.74;98713.04;671241;1263;138950;-78
2023/03/31 13:40:51;;;;;;;34.70;22.10;;;;;;;15.73;84.77;98701.97;669340;1262;139565;-76
2023/03/31 13:56:25;;;;;;;42.80;22.70;;;;;;;17.19;85.28;98690.23;669708;1263;139428;-77
2023/03/31 14:11:31;;;;;;;24.40;14.60;;;;;;;19.72;82.80;98671.73;670123;1263;140382;-79
2023/03/31 14:27:00;;;;;;;33.90;20.30;;;;;;;20.48;76.65;98662.19;669449;1275;139415;-79
2023/03/31 14:42:15;;;;;;;23.80;11.40;;;;;;;18.24;76.92;98633.88;672243;1261;139111;-77
2023/03/31 14:57:26;;;;;;;142.60;49.80;;;;;;;16.29;74.15;98628.48;671235;1260;139579;-76
2023/03/31 15:12:30;;;;;;;72.60;33.00;;;;;;;15.97;77.60;98617.66;670543;1260;140034;-77
2023/03/31 15:27:37;;;;;;;43.80;22.50;;;;;;;15.45;80.42;98624.30;671744;1262;140736;-76
2023/03/31 15:42:40;;;;;;;33.60;20.20;;;;;;;15.40;81.52;98606.77;670652;1262;140920;-77
2023/03/31 15:57:52;;;;;;;102.30;40.80;;;;;;;15.34;83.26;98602.90;672384;1259;139948;-78
2023/03/31 16:13:00;;;;;;;193.50;83.10;;;;;;;14.97;84.46;98574.45;672219;1262;139968;-78
2023/03/31 16:28:04;;;;;;;352.90;195.30;;;;;;;15.03;87.73;98571.07;671220;1274;140048;-78
2023/03/31 16:43:16;;;;;;;88.30;50.60;;;;;;;14.95;87.97;98574.54;670346;1273;140445;-78
2023/03/31 16:58:22;;;;;;;270.10;117.00;;;;;;;14.86;86.97;98546.77;669006;1262;139279;-77
2023/03/31 17:13:26;;;;;;;103.50;53.60;;;;;;;14.70;86.80;98531.95;670970;1260;140250;-78
2023/03/31 17:28:29;;;;;;;406.20;204.00;;;;;;;14.30;87.72;98535.92;668711;1271;139919;-78
2023/03/31 17:43:34;;;;;;;94.80;40.90;;;;;;;14.11;87.94;98534.45;670791;1262;140907;-78
2023/03/31 17:58:38;;;;;;;247.80;106.80;;;;;;;14.03;88.97;98534.14;671535;1260;140382;-77
2023/03/31 18:13:42;;;;;;;317.40;117.20;;;;;;;14.12;89.72;98525.55;669776;1263;140132;-78
2023/03/31 18:28:46;;;;;;;310.60;115.40;;;;;;;14.02;89.18;98526.52;671567;1259;140762;-78
2023/03/31 18:43:51;;;;;;;203.80;97.80;;;;;;;13.91;89.13;98517.90;671348;1262;140800;-77
2023/03/31 18:58:55;;;;;;;137.60;62.20;;;;;;;13.79;88.58;98510.98;672745;1263;140018;-78
2023/03/31 19:14:00;;;;;;;117.50;51.20;;;;;;;13.64;88.14;98502.36;673293;1261;139865;-78
2023/03/31 19:29:05;;;;;;;164.00;87.00;;;;;;;13.53;88.51;98486.68;674523;1262;138969;-77
2023/03/31 19:44:08;;;;;;;245.60;119.80;;;;;;;13.39;88.55;98472.77;672970;1262;142533;-77
2023/03/31 19:59:12;;;;;;;236.30;113.10;;;;;;;13.20;89.54;98458.26;671300;1265;140836;-78
2023/03/31 20:14:16;;;;;;;184.20;88.30;;;;;;;13.24;89.11;98457.13;669991;1263;140576;-77
2023/03/31 20:29:20;;;;;;;158.70;70.40;;;;;;;13.29;89.54;98450.27;670246;1263;140519;-78
2023/03/31 20:44:24;;;;;;;179.80;84.70;;;;;;;13.34;89.55;98454.59;673018;1259;139520;-77
2023/03/31 20:59:28;;;;;;;326.00;130.90;;;;;;;13.37;89.95;98451.09;672211;1263;139883;-77
2023/03/31 21:14:31;;;;;;;178.20;82.90;;;;;;;13.25;90.95;98446.56;670997;1263;140151;-77
2023/03/31 21:29:35;;;;;;;105.40;52.90;;;;;;;13.37;91.05;98448.78;673363;1263;139765;-77
2023/03/31 21:44:38;;;;;;;133.30;58.00;;;;;;;13.43;91.18;98445.03;673217;1262;140261;-77
2023/03/31 21:59:42;;;;;;;128.10;59.40;;;;;;;13.45;91.32;98443.54;673386;1263;140041;-77
2023/03/31 22:14:45;;;;;;;47.30;25.10;;;;;;;13.48;91.76;98435.23;675053;1263;139645;-77
2023/03/31 22:29:48;;;;;;;20.60;11.20;;;;;;;13.37;93.48;98425.27;672801;1262;139653;-77
2023/03/31 22:44:51;;;;;;;18.00;11.60;;;;;;;13.43;94.50;98422.38;675585;1273;139857;-78
2023/03/31 22:59:54;;;;;;;68.30;35.10;;;;;;;13.55;94.31;98425.61;674407;1262;142546;-77
2023/03/31 23:14:57;;;;;;;48.60;25.40;;;;;;;13.51;93.89;98425.40;672001;1263;140025;-77
2023/03/31 23:30:00;;;;;;;35.80;20.80;;;;;;;13.57;93.70;98417.65;670201;1263;139374;-78
2023/03/31 23:45:04;;;;;;;84.60;36.80;;;;;;;13.52;94.49;98402.23;670530;1263;139967;-77
